Time;durP1;ratioP1;P1;durP2;ratioP2;P2;SDS_P1;SDS_P2;PMS_P1;PMS_P2;Temp;Humidity;BMP_temperature;BMP_pressure;BME280_temperature;BME280_humidity;BME280_pressure;Samples;Min_cycle;Max_cycle;Signal;HPM_P1;HPM_P2
2024/03/05 00:01:02;;;;;;;9.82;6.30;;;13.00;96.10;;;;;;5077309;28;20051;-41
2024/03/05 00:03:28;;;;;;;8.70;5.80;;;13.00;96.10;;;;;;5077324;28;20021;-43
2024/03/05 00:05:54;;;;;;;8.82;5.70;;;13.00;96.10;;;;;;5077180;28;20029;-43
2024/03/05 00:08:20;;;;;;;9.38;6.40;;;13.00;96.20;;;;;;5077508;28;20066;-44
2024/03/05 00:10:46;;;;;;;8.68;5.82;;;12.90;96.10;;;;;;5077223;28;20416;-44
2024/03/05 00:13:12;;;;;;;11.23;6.28;;;12.90;96.20;;;;;;5077270;28;20483;-45
2024/03/05 00:15:39;;;;;;;9.27;6.45;;;12.90;96.20;;;;;;5077342;28;20085;-43
2024/03/05 00:18:05;;;;;;;9.30;6.18;;;12.90;96.20;;;;;;5076972;28;20034;-43
2024/03/05 00:20:34;;;;;;;8.63;5.75;;;12.90;96.20;;;;;;5077124;28;20074;-45
2024/03/05 00:23:00;;;;;;;9.20;5.97;;;12.90;96.20;;;;;;5077822;28;20363;-41
2024/03/05 00:25:26;;;;;;;8.60;6.18;;;12.90;96.20;;;;;;5077567;28;20070;-40
2024/03/05 00:27:54;;;;;;;9.05;6.10;;;12.90;96.20;;;;;;5077657;28;20028;-42
2024/03/05 00:30:20;;;;;;;9.05;6.00;;;12.90;96.30;;;;;;5078287;28;20059;-43
2024/03/05 00:32:47;;;;;;;10.15;6.30;;;12.90;96.30;;;;;;5077209;28;20060;-42
2024/03/05 00:35:15;;;;;;;8.82;6.10;;;12.90;96.30;;;;;;5077201;28;20036;-43
2024/03/05 00:37:41;;;;;;;11.13;6.40;;;12.90;96.30;;;;;;5079210;28;20032;-43
2024/03/05 00:40:09;;;;;;;9.60;6.35;;;12.90;96.30;;;;;;5078974;28;20491;-44
2024/03/05 00:42:35;;;;;;;9.43;6.07;;;12.90;96.30;;;;;;5077542;28;20020;-45
2024/03/05 00:45:01;;;;;;;9.98;6.53;;;12.90;96.40;;;;;;5077080;28;20051;-44
2024/03/05 00:47:28;;;;;;;9.88;6.20;;;12.80;96.30;;;;;;5076762;28;20052;-43
2024/03/05 00:49:55;;;;;;;10.05;6.13;;;12.90;96.40;;;;;;5076655;28;20032;-45
2024/03/05 00:52:20;;;;;;;10.40;6.40;;;12.80;96.40;;;;;;5077379;28;20307;-40
2024/03/05 00:54:46;;;;;;;8.85;5.75;;;12.80;96.40;;;;;;5075226;28;20097;-45
2024/03/05 00:57:12;;;;;;;9.02;6.45;;;12.80;96.40;;;;;;5074019;28;20036;-43
2024/03/05 00:59:38;;;;;;;8.85;6.43;;;12.80;96.40;;;;;;5073704;28;20032;-43
2024/03/05 01:02:04;;;;;;;9.52;6.13;;;12.80;96.40;;;;;;5073665;28;20094;-44
2024/03/05 01:04:30;;;;;;;10.52;6.13;;;12.80;96.40;;;;;;5073994;28;20020;-45
2024/03/05 01:06:58;;;;;;;8.93;6.00;;;12.80;96.40;;;;;;5073392;28;20016;-44
2024/03/05 01:09:24;;;;;;;12.52;6.72;;;12.80;96.50;;;;;;5073385;28;20064;-44
2024/03/05 01:11:52;;;;;;;9.38;6.32;;;12.80;96.50;;;;;;5073455;28;20020;-43
2024/03/05 01:14:18;;;;;;;9.15;6.30;;;12.80;96.50;;;;;;5073419;28;20039;-42
2024/03/05 01:16:44;;;;;;;8.82;6.13;;;12.80;96.50;;;;;;5074002;28;20090;-44
2024/03/05 01:19:12;;;;;;;8.60;5.68;;;12.80;96.50;;;;;;5073079;28;20033;-44
2024/03/05 01:21:38;;;;;;;9.27;6.35;;;12.80;96.50;;;;;;5073299;28;20020;-45
2024/03/05 01:24:04;;;;;;;8.80;5.95;;;12.80;96.50;;;;;;5073128;28;20032;-43
2024/03/05 01:26:29;;;;;;;8.18;5.75;;;12.70;96.50;;;;;;5073294;28;20457;-39
2024/03/05 01:28:55;;;;;;;7.68;5.68;;;12.80;96.60;;;;;;5073041;28;20107;-40
2024/03/05 01:31:22;;;;;;;9.30;5.95;;;12.70;96.50;;;;;;5072978;28;20025;-40
2024/03/05 01:33:49;;;;;;;7.78;5.63;;;12.70;96.50;;;;;;5074281;28;20029;-43
2024/03/05 01:36:15;;;;;;;8.90;5.63;;;12.70;96.60;;;;;;5074707;28;20031;-45
2024/03/05 01:38:42;;;;;;;7.43;5.95;;;12.70;96.60;;;;;;5072810;28;20082;-44
2024/03/05 01:41:08;;;;;;;8.10;5.50;;;12.70;96.60;;;;;;5072770;28;20020;-43
2024/03/05 01:43:33;;;;;;;10.38;6.10;;;12.70;96.60;;;;;;5073281;28;20033;-45
2024/03/05 01:45:59;;;;;;;7.93;5.60;;;12.70;96.60;;;;;;5073426;28;20020;-44
2024/03/05 01:48:27;;;;;;;9.00;6.40;;;12.70;96.60;;;;;;5072974;28;20028;-40
2024/03/05 01:50:55;;;;;;;9.30;5.95;;;12.70;96.60;;;;;;5073075;28;20027;-43
2024/03/05 01:53:22;;;;;;;8.55;6.03;;;12.70;96.80;;;;;;5073180;28;20024;-43
2024/03/05 01:55:53;;;;;;;7.93;5.97;;;12.70;96.70;;;;;;5074301;28;20025;-43
2024/03/05 01:58:19;;;;;;;9.07;5.72;;;12.70;96.70;;;;;;5073346;28;20021;-45
2024/03/05 02:00:46;;;;;;;10.27;6.28;;;12.70;96.70;;;;;;5073463;28;20460;-44
2024/03/05 02:03:12;;;;;;;9.23;5.78;;;12.70;96.70;;;;;;5072967;28;20012;-44
2024/03/05 02:05:43;;;;;;;10.38;5.70;;;12.70;96.70;;;;;;5072597;28;20056;-45
2024/03/05 02:08:09;;;;;;;9.68;5.95;;;12.70;96.70;;;;;;5072870;28;20082;-43
2024/03/05 02:10:34;;;;;;;8.90;6.05;;;12.70;96.70;;;;;;5073754;28;20718;-44
2024/03/05 02:13:00;;;;;;;8.45;5.47;;;12.70;96.70;;;;;;5073959;28;20040;-44
2024/03/05 02:15:26;;;;;;;7.85;5.80;;;12.60;97.10;;;;;;5073279;28;20020;-44
2024/03/05 02:17:52;;;;;;;8.38;5.75;;;12.60;96.70;;;;;;5072604;28;20028;-43
2024/03/05 02:20:17;;;;;;;8.32;5.78;;;12.60;96.80;;;;;;5071686;28;20036;-45
2024/03/05 02:22:43;;;;;;;8.25;5.72;;;12.60;96.80;;;;;;5072137;28;20100;-44
2024/03/05 02:25:12;;;;;;;9.32;5.75;;;12.60;97.10;;;;;;5072332;28;20162;-41
2024/03/05 02:27:40;;;;;;;9.57;6.15;;;12.60;96.80;;;;;;5072247;28;20036;-45
2024/03/05 02:30:10;;;;;;;9.45;5.68;;;12.60;96.80;;;;;;5071595;28;20509;-38
2024/03/05 02:32:42;;;;;;;9.80;6.63;;;12.60;96.80;;;;;;5072032;28;20036;-41
2024/03/05 02:35:09;;;;;;;9.05;5.88;;;12.60;96.80;;;;;;5072680;28;20029;-44
2024/03/05 02:37:38;;;;;;;9.90;6.22;;;12.60;96.80;;;;;;5071660;28;20020;-44
2024/03/05 02:40:11;;;;;;;9.40;5.47;;;12.60;96.80;;;;;;5071773;28;20514;-45
2024/03/05 02:42:37;;;;;;;8.48;5.85;;;12.60;96.80;;;;;;5072192;28;20398;-42
2024/03/05 02:45:04;;;;;;;8.38;5.70;;;12.60;96.90;;;;;;5072358;28;20027;-45
2024/03/05 02:47:35;;;;;;;9.45;5.90;;;12.60;96.90;;;;;;5071347;28;20490;-44
2024/03/05 02:50:03;;;;;;;9.13;6.00;;;12.60;96.90;;;;;;5071345;28;20028;-45
2024/03/05 02:52:30;;;;;;;8.93;6.32;;;12.60;96.90;;;;;;5073157;28;20608;-44
2024/03/05 02:54:57;;;;;;;8.95;6.05;;;12.60;96.90;;;;;;5071960;28;20111;-45
2024/03/05 02:57:24;;;;;;;9.43;6.10;;;12.60;96.90;;;;;;5071249;28;20035;-45
2024/03/05 02:59:51;;;;;;;11.05;7.22;;;12.50;96.90;;;;;;5071640;28;20605;-44
2024/03/05 03:02:17;;;;;;;10.30;6.63;;;12.50;96.90;;;;;;5072112;28;20028;-45
2024/03/05 03:04:43;;;;;;;10.65;6.32;;;12.60;96.90;;;;;;5072221;28;20036;-44
2024/03/05 03:07:10;;;;;;;8.85;6.13;;;12.60;96.90;;;;;;5071124;28;20048;-45
2024/03/05 03:09:35;;;;;;;8.63;6.10;;;12.50;96.90;;;;;;5071527;28;20081;-40
2024/03/05 03:12:02;;;;;;;7.63;5.70;;;12.50;96.90;;;;;;5071813;28;20021;-44
2024/03/05 03:14:28;;;;;;;9.30;6.22;;;12.50;96.90;;;;;;5071541;28;20031;-44
2024/03/05 03:16:54;;;;;;;11.35;6.80;;;12.50;96.90;;;;;;5071567;28;20440;-44
2024/03/05 03:19:21;;;;;;;9.35;5.88;;;12.50;96.90;;;;;;5070335;28;20031;-41
2024/03/05 03:21:47;;;;;;;8.65;6.22;;;12.50;97.00;;;;;;5071684;28;20027;-45
2024/03/05 03:24:13;;;;;;;9.10;6.03;;;12.50;97.00;;;;;;5071644;28;20016;-45
2024/03/05 03:26:38;;;;;;;9.75;6.28;;;12.50;97.00;;;;;;5070889;28;20451;-44
2024/03/05 03:29:11;;;;;;;8.75;6.00;;;12.50;97.00;;;;;;5070688;28;20119;-45
2024/03/05 03:31:45;;;;;;;8.63;6.05;;;12.50;97.00;;;;;;5071752;28;20093;-45
2024/03/05 03:34:11;;;;;;;10.95;6.13;;;12.50;97.10;;;;;;5071037;28;20017;-41
2024/03/05 03:36:37;;;;;;;7.65;5.43;;;12.50;97.00;;;;;;5071546;28;20029;-43
2024/03/05 03:39:02;;;;;;;10.35;6.35;;;12.50;97.10;;;;;;5072559;28;20031;-44
2024/03/05 03:41:28;;;;;;;8.52;5.80;;;12.50;97.10;;;;;;5071175;28;20470;-44
2024/03/05 03:43:54;;;;;;;8.48;5.95;;;12.50;97.10;;;;;;5072925;28;20024;-44
2024/03/05 03:46:20;;;;;;;9.50;6.75;;;12.50;97.10;;;;;;5071714;28;20020;-38
2024/03/05 03:48:46;;;;;;;9.82;6.15;;;12.50;97.10;;;;;;5071251;28;20024;-43
2024/03/05 03:51:13;;;;;;;8.73;6.50;;;12.50;97.10;;;;;;5070784;28;20062;-44
2024/03/05 03:53:43;;;;;;;8.60;5.90;;;12.50;97.10;;;;;;5070716;28;20028;-45
2024/03/05 03:56:09;;;;;;;9.52;6.10;;;12.50;97.10;;;;;;5071226;28;20470;-41
2024/03/05 03:58:35;;;;;;;10.20;6.53;;;12.50;97.10;;;;;;5071800;28;20060;-45
2024/03/05 04:01:02;;;;;;;9.85;6.88;;;12.50;97.10;;;;;;5070767;28;20102;-44
2024/03/05 04:03:29;;;;;;;10.00;5.95;;;12.50;97.10;;;;;;5070691;28;20082;-44
2024/03/05 04:05:55;;;;;;;8.65;5.32;;;12.50;97.20;;;;;;5070552;28;20025;-41
2024/03/05 04:08:21;;;;;;;8.85;5.82;;;12.50;97.20;;;;;;5070780;28;20032;-45
2024/03/05 04:10:48;;;;;;;8.73;6.15;;;12.40;97.20;;;;;;5070628;28;20039;-45
2024/03/05 04:13:13;;;;;;;9.35;5.88;;;12.40;97.50;;;;;;5070667;28;20028;-40
2024/03/05 04:15:39;;;;;;;9.20;6.25;;;12.50;97.20;;;;;;5070650;28;20033;-43
2024/03/05 04:18:05;;;;;;;9.63;5.90;;;12.40;97.20;;;;;;5070490;28;20028;-45
2024/03/05 04:20:30;;;;;;;11.20;6.57;;;12.40;97.20;;;;;;5070277;28;20565;-44
2024/03/05 04:22:56;;;;;;;8.93;5.88;;;12.40;97.20;;;;;;5070608;28;20100;-43
2024/03/05 04:25:25;;;;;;;8.10;5.85;;;12.40;97.20;;;;;;5070553;28;20036;-42
2024/03/05 04:27:50;;;;;;;9.57;6.57;;;12.40;97.20;;;;;;5071254;28;20020;-44
2024/03/05 04:30:16;;;;;;;8.70;5.80;;;12.40;97.20;;;;;;5072315;28;20154;-44
2024/03/05 04:32:46;;;;;;;8.85;6.32;;;12.40;97.20;;;;;;5074587;28;20054;-44
2024/03/05 04:35:18;;;;;;;9.75;6.43;;;12.40;97.20;;;;;;5074111;28;20020;-43
2024/03/05 04:37:44;;;;;;;8.90;5.82;;;12.40;97.20;;;;;;5073737;28;20070;-40
2024/03/05 04:40:10;;;;;;;9.10;6.25;;;12.40;97.20;;;;;;5073810;28;20071;-44
2024/03/05 04:42:39;;;;;;;8.38;5.97;;;12.40;97.20;;;;;;5073894;28;20021;-45
2024/03/05 04:45:07;;;;;;;9.00;6.28;;;12.40;97.30;;;;;;5073957;28;20043;-43
2024/03/05 04:47:33;;;;;;;10.40;6.40;;;12.40;97.30;;;;;;5073756;28;20025;-44
2024/03/05 04:49:59;;;;;;;9.77;6.30;;;12.40;97.30;;;;;;5073711;28;20466;-44
2024/03/05 04:52:27;;;;;;;9.13;6.35;;;12.40;97.30;;;;;;5073775;28;20027;-44
2024/03/05 04:54:53;;;;;;;7.75;6.13;;;12.40;97.30;;;;;;5072489;28;20028;-45
2024/03/05 04:57:19;;;;;;;8.43;6.03;;;12.40;97.30;;;;;;5073741;28;20028;-44
2024/03/05 04:59:45;;;;;;;9.32;6.43;;;12.40;97.30;;;;;;5074213;28;20032;-44
2024/03/05 05:02:11;;;;;;;8.82;6.18;;;12.40;97.30;;;;;;5074836;28;20032;-44
2024/03/05 05:04:41;;;;;;;9.32;6.65;;;12.40;97.30;;;;;;5074355;28;20025;-44
2024/03/05 05:07:07;;;;;;;10.40;6.47;;;12.40;97.30;;;;;;5073670;28;20024;-45
2024/03/05 05:09:43;;;;;;;8.13;5.95;;;12.40;97.30;;;;;;5073670;28;20351;-41
2024/03/05 05:12:11;;;;;;;9.05;6.30;;;12.40;97.30;;;;;;5073658;28;20033;-44
2024/03/05 05:14:36;;;;;;;8.20;5.95;;;12.40;97.40;;;;;;5073556;28;20021;-42
2024/03/05 05:17:02;;;;;;;9.75;6.55;;;12.40;97.40;;;;;;5073305;28;20033;-44
2024/03/05 05:19:28;;;;;;;11.32;6.93;;;12.40;97.40;;;;;;5072995;28;20551;-43
2024/03/05 05:21:54;;;;;;;9.82;6.53;;;12.40;97.40;;;;;;5073517;28;20028;-44
2024/03/05 05:24:19;;;;;;;8.55;6.15;;;12.40;97.40;;;;;;5073316;28;20390;-44
2024/03/05 05:26:46;;;;;;;8.52;6.22;;;12.40;97.40;;;;;;5073111;28;20039;-44
2024/03/05 05:29:12;;;;;;;9.57;5.95;;;12.40;97.40;;;;;;5072824;28;20028;-43
2024/03/05 05:31:39;;;;;;;9.43;6.13;;;12.40;97.40;;;;;;5073126;28;20094;-45
2024/03/05 05:34:04;;;;;;;9.23;6.40;;;12.30;97.40;;;;;;5072908;28;20020;-45
2024/03/05 05:36:30;;;;;;;10.20;6.45;;;12.40;97.40;;;;;;5072874;28;20566;-43
2024/03/05 05:38:59;;;;;;;9.80;6.35;;;12.30;97.40;;;;;;5072619;28;20096;-44
2024/03/05 05:41:24;;;;;;;7.68;5.93;;;12.30;97.40;;;;;;5072217;28;20482;-44
2024/03/05 05:43:50;;;;;;;8.50;5.70;;;12.40;97.40;;;;;;5072843;28;20027;-43
2024/03/05 05:46:19;;;;;;;10.00;6.38;;;12.40;97.40;;;;;;5073152;28;20020;-44
2024/03/05 05:48:49;;;;;;;8.60;5.90;;;12.40;97.40;;;;;;5072556;28;20024;-44
2024/03/05 05:51:15;;;;;;;8.35;6.05;;;12.30;97.40;;;;;;5072544;28;20055;-43
2024/03/05 05:53:41;;;;;;;6.90;5.18;;;12.30;97.40;;;;;;5072735;28;20418;-43
2024/03/05 05:56:07;;;;;;;7.88;5.68;;;12.30;97.40;;;;;;5072632;28;20470;-45
2024/03/05 05:58:33;;;;;;;8.85;6.10;;;12.30;97.50;;;;;;5072434;28;20032;-43
2024/03/05 06:01:02;;;;;;;8.88;6.43;;;12.30;97.40;;;;;;5072078;28;20020;-44
2024/03/05 06:03:29;;;;;;;7.38;5.50;;;12.30;97.50;;;;;;5072100;28;20024;-44
2024/03/05 06:05:54;;;;;;;9.98;5.95;;;12.30;97.50;;;;;;5073406;28;20020;-43
2024/03/05 06:08:20;;;;;;;9.32;6.63;;;12.30;97.50;;;;;;5072447;28;20020;-41
2024/03/05 06:10:46;;;;;;;8.00;5.40;;;12.30;97.60;;;;;;5072067;28;20032;-45
2024/03/05 06:13:12;;;;;;;9.18;6.13;;;12.30;97.60;;;;;;5073238;28;20509;-43
2024/03/05 06:15:40;;;;;;;8.70;5.90;;;12.30;97.60;;;;;;5072464;28;20029;-44
2024/03/05 06:18:06;;;;;;;7.53;5.53;;;12.30;97.60;;;;;;5072369;28;20157;-44
2024/03/05 06:20:32;;;;;;;9.20;6.07;;;12.30;97.60;;;;;;5071892;28;20112;-43
2024/03/05 06:23:00;;;;;;;8.68;6.10;;;12.40;97.60;;;;;;5072553;28;20389;-39
2024/03/05 06:25:27;;;;;;;8.13;5.20;;;12.30;97.60;;;;;;5072311;28;20020;-45
2024/03/05 06:27:52;;;;;;;9.48;6.38;;;12.40;97.60;;;;;;5072013;28;20081;-44
2024/03/05 06:30:18;;;;;;;9.00;6.50;;;12.30;97.60;;;;;;5071763;28;20025;-45
2024/03/05 06:32:48;;;;;;;9.27;6.25;;;12.40;97.60;;;;;;5072694;28;20111;-45
2024/03/05 06:35:14;;;;;;;10.32;5.47;;;12.40;97.70;;;;;;5071949;28;20020;-44
2024/03/05 06:37:42;;;;;;;8.32;5.72;;;12.40;97.80;;;;;;5071284;28;20032;-40
2024/03/05 06:40:09;;;;;;;8.43;6.25;;;12.40;97.90;;;;;;5071528;28;20058;-45
2024/03/05 06:42:38;;;;;;;7.63;5.50;;;12.40;97.90;;;;;;5071698;28;20304;-42
2024/03/05 06:45:14;;;;;;;7.65;5.93;;;12.50;98.00;;;;;;5071955;28;20016;-43
2024/03/05 06:47:54;;;;;;;8.57;6.13;;;12.50;98.00;;;;;;5071880;28;20067;-45
2024/03/05 06:50:23;;;;;;;8.65;5.95;;;12.60;98.00;;;;;;5071512;28;20045;-42
2024/03/05 06:58:19;;;;;;;8.43;6.40;;;12.70;97.80;;;;;;5071466;28;20401;-45
2024/03/05 07:00:46;;;;;;;10.30;6.18;;;12.90;97.70;;;;;;5072854;28;20029;-41
2024/03/05 07:03:13;;;;;;;9.23;6.35;;;12.90;97.60;;;;;;5072148;28;20021;-41
2024/03/05 07:05:39;;;;;;;9.52;5.95;;;12.90;97.50;;;;;;5071228;28;20427;-44
2024/03/05 07:08:07;;;;;;;9.43;5.80;;;13.00;97.40;;;;;;5071245;28;20087;-45
2024/03/05 07:10:34;;;;;;;8.30;5.80;;;13.10;97.40;;;;;;5070503;28;20020;-41
2024/03/05 07:13:01;;;;;;;8.38;6.00;;;13.20;97.30;;;;;;5071121;28;20027;-44
2024/03/05 07:15:26;;;;;;;8.07;5.88;;;13.20;97.10;;;;;;5071673;28;20108;-45
2024/03/05 07:17:52;;;;;;;8.27;5.32;;;13.30;97.10;;;;;;5070915;28;20103;-44
2024/03/05 07:20:24;;;;;;;8.85;5.93;;;13.40;97.00;;;;;;5070812;28;20123;-45
2024/03/05 07:22:52;;;;;;;8.63;5.53;;;13.40;96.90;;;;;;5071126;28;20090;-43
2024/03/05 07:25:18;;;;;;;7.65;5.65;;;13.50;96.80;;;;;;5071716;28;20472;-40
2024/03/05 07:27:46;;;;;;;8.25;5.72;;;13.50;96.70;;;;;;5070948;28;20324;-43
2024/03/05 07:30:21;;;;;;;9.10;5.90;;;13.60;96.60;;;;;;5071770;28;20082;-44
2024/03/05 07:32:48;;;;;;;6.82;5.53;;;13.70;96.50;;;;;;5071348;28;20028;-40
2024/03/05 07:35:15;;;;;;;8.07;6.22;;;13.80;96.40;;;;;;5071076;28;20039;-44
2024/03/05 07:37:44;;;;;;;8.10;5.43;;;13.90;96.30;;;;;;5070672;28;20029;-44
2024/03/05 07:40:18;;;;;;;7.90;5.53;;;13.90;96.10;;;;;;5071124;28;20020;-45
2024/03/05 07:42:50;;;;;;;8.38;5.90;;;14.00;96.00;;;;;;5071037;28;20467;-43
2024/03/05 07:45:16;;;;;;;9.70;6.57;;;14.10;95.90;;;;;;5070911;28;20024;-44
2024/03/05 07:47:46;;;;;;;7.72;5.25;;;14.10;95.80;;;;;;5070623;28;20024;-42
2024/03/05 07:50:14;;;;;;;8.65;5.72;;;14.20;95.70;;;;;;5070693;28;20489;-40
2024/03/05 07:52:44;;;;;;;8.63;5.80;;;14.20;95.60;;;;;;5070805;28;20367;-45
2024/03/05 07:55:15;;;;;;;7.45;5.30;;;14.30;95.50;;;;;;5071165;28;20074;-44
2024/03/05 07:57:41;;;;;;;8.27;5.65;;;14.40;95.40;;;;;;5071682;28;20394;-45
2024/03/05 08:00:14;;;;;;;9.32;5.75;;;14.40;95.30;;;;;;5072291;28;20497;-45
2024/03/05 08:02:42;;;;;;;8.55;5.93;;;14.50;95.20;;;;;;5069718;28;20035;-42
2024/03/05 08:05:08;;;;;;;9.07;5.78;;;14.50;95.10;;;;;;5072923;28;20016;-45
2024/03/05 08:07:35;;;;;;;9.05;5.65;;;14.60;95.00;;;;;;5075118;28;20063;-45
2024/03/05 08:10:08;;;;;;;8.52;5.85;;;14.70;94.90;;;;;;5073935;28;20035;-42
2024/03/05 08:12:39;;;;;;;8.65;5.90;;;14.70;94.80;;;;;;5073381;28;20017;-42
2024/03/05 08:15:06;;;;;;;9.07;5.75;;;14.80;94.70;;;;;;5074560;28;20121;-45
2024/03/05 08:17:33;;;;;;;8.70;5.65;;;14.80;94.60;;;;;;5075700;28;20189;-45
2024/03/05 08:19:59;;;;;;;8.25;5.65;;;14.80;94.60;;;;;;5075933;28;20421;-45
2024/03/05 08:22:25;;;;;;;7.13;5.25;;;14.90;94.50;;;;;;5074647;28;20103;-45
2024/03/05 08:24:50;;;;;;;8.18;5.75;;;15.00;94.40;;;;;;5075990;28;20040;-44
2024/03/05 08:27:16;;;;;;;8.23;5.78;;;15.00;94.30;;;;;;5074051;28;20039;-44
2024/03/05 08:29:43;;;;;;;6.22;4.85;;;15.10;94.30;;;;;;5074345;28;20028;-44
2024/03/05 08:32:09;;;;;;;7.22;5.13;;;15.10;94.20;;;;;;5075061;28;20371;-45
2024/03/05 08:34:38;;;;;;;9.07;5.80;;;15.10;94.10;;;;;;5074566;28;20026;-45
2024/03/05 08:37:04;;;;;;;7.88;5.75;;;15.20;94.00;;;;;;5074614;28;20055;-45
2024/03/05 08:39:31;;;;;;;7.18;5.03;;;15.20;94.00;;;;;;5073797;28;20056;-44
2024/03/05 08:41:58;;;;;;;8.10;4.70;;;15.30;93.90;;;;;;5074002;28;20474;-44
2024/03/05 08:44:27;;;;;;;8.88;5.43;;;15.30;93.80;;;;;;5074440;28;20016;-41
2024/03/05 08:46:53;;;;;;;8.60;5.30;;;15.40;93.80;;;;;;5074104;28;20021;-45
2024/03/05 08:49:20;;;;;;;7.25;5.35;;;15.40;93.70;;;;;;5074631;28;20029;-45
2024/03/05 08:51:45;;;;;;;7.32;4.97;;;15.40;93.60;;;;;;5073849;28;20104;-45
2024/03/05 08:54:12;;;;;;;8.60;5.35;;;15.50;93.60;;;;;;5073931;28;20096;-41
2024/03/05 08:56:39;;;;;;;7.30;4.78;;;15.50;93.50;;;;;;5073833;28;20028;-45
2024/03/05 08:59:06;;;;;;;6.10;4.57;;;15.50;93.80;;;;;;5073461;28;20025;-45
2024/03/05 09:01:33;;;;;;;6.63;4.70;;;15.50;93.40;;;;;;5073717;28;20127;-42
2024/03/05 09:04:01;;;;;;;6.45;4.35;;;15.60;93.30;;;;;;5073920;28;20370;-43
2024/03/05 09:06:30;;;;;;;6.63;4.35;;;15.60;93.30;;;;;;5073972;28;20554;-45
2024/03/05 09:08:56;;;;;;;7.00;4.70;;;15.60;93.20;;;;;;5073463;28;20020;-44
2024/03/05 09:11:22;;;;;;;6.18;4.50;;;15.70;93.20;;;;;;5073606;28;20044;-44
2024/03/05 09:13:48;;;;;;;5.40;4.13;;;15.70;93.10;;;;;;5075662;28;20366;-45
2024/03/05 09:16:13;;;;;;;6.38;4.25;;;15.70;93.00;;;;;;5074443;28;20028;-44
2024/03/05 09:18:39;;;;;;;6.03;4.28;;;15.70;93.00;;;;;;5073588;28;20029;-44
2024/03/05 09:21:09;;;;;;;5.60;4.20;;;15.80;93.00;;;;;;5074385;28;20040;-44
2024/03/05 09:23:36;;;;;;;5.25;3.90;;;15.80;92.90;;;;;;5075139;28;20071;-45
2024/03/05 09:26:03;;;;;;;5.38;3.70;;;15.80;92.80;;;;;;5073612;28;20039;-45
2024/03/05 09:28:28;;;;;;;5.43;3.67;;;15.80;93.10;;;;;;5072935;28;20036;-43
2024/03/05 09:30:56;;;;;;;7.78;4.25;;;15.90;92.80;;;;;;5073496;28;20418;-42
2024/03/05 09:33:22;;;;;;;5.63;4.05;;;15.90;92.70;;;;;;5073059;28;20028;-42
2024/03/05 09:35:48;;;;;;;4.70;3.90;;;15.90;92.70;;;;;;5073877;28;20035;-43
2024/03/05 09:38:16;;;;;;;4.95;3.78;;;15.90;92.60;;;;;;5072918;28;20021;-43
2024/03/05 09:40:42;;;;;;;4.85;3.75;;;16.00;92.60;;;;;;5073095;28;20409;-42
2024/03/05 09:43:07;;;;;;;5.93;4.00;;;15.90;92.60;;;;;;5072982;28;20062;-43
2024/03/05 09:45:37;;;;;;;7.70;4.10;;;16.00;92.50;;;;;;5073260;28;20048;-45
2024/03/05 09:48:04;;;;;;;5.03;3.53;;;16.00;92.50;;;;;;5072558;28;20031;-44
2024/03/05 09:50:31;;;;;;;5.25;3.63;;;16.00;92.50;;;;;;5074661;28;20028;-44
2024/03/05 09:52:59;;;;;;;4.55;3.47;;;16.00;92.40;;;;;;5072729;28;20436;-45
2024/03/05 09:55:26;;;;;;;5.45;3.45;;;16.00;92.40;;;;;;5072683;28;20120;-44
2024/03/05 09:57:54;;;;;;;4.57;3.42;;;16.10;92.70;;;;;;5073620;28;20032;-45
2024/03/05 10:00:21;;;;;;;5.15;3.58;;;16.10;92.30;;;;;;5071882;28;20098;-45
2024/03/05 10:02:48;;;;;;;3.85;2.85;;;16.10;92.30;;;;;;5072594;28;20016;-45
2024/03/05 10:05:15;;;;;;;4.68;3.50;;;16.20;92.30;;;;;;5072458;28;20017;-44
2024/03/05 10:07:41;;;;;;;4.30;3.40;;;16.20;92.20;;;;;;5072207;28;20431;-45
2024/03/05 10:10:11;;;;;;;4.63;3.13;;;16.20;92.20;;;;;;5072494;28;20052;-44
2024/03/05 10:12:37;;;;;;;4.65;3.28;;;16.20;92.10;;;;;;5072391;28;20071;-43
2024/03/05 10:15:23;;;;;;;4.47;3.28;;;16.20;92.10;;;;;;5072600;28;20039;-43
2024/03/05 10:17:50;;;;;;;4.63;3.13;;;16.30;92.10;;;;;;5072290;28;20029;-44
2024/03/05 10:20:36;;;;;;;4.07;3.00;;;16.30;92.10;;;;;;5072273;28;20039;-45
2024/03/05 10:23:04;;;;;;;4.65;3.20;;;16.30;92.00;;;;;;5072858;28;20039;-45
2024/03/05 10:25:32;;;;;;;3.63;2.70;;;16.30;92.00;;;;;;5072038;28;20108;-45
2024/03/05 10:27:59;;;;;;;3.28;2.78;;;16.40;92.00;;;;;;5071593;28;20024;-45
2024/03/05 10:30:32;;;;;;;3.40;2.58;;;16.30;91.90;;;;;;5071958;28;20487;-42
2024/03/05 10:33:00;;;;;;;3.00;2.70;;;16.40;91.90;;;;;;5072023;28;20085;-44
2024/03/05 10:35:26;;;;;;;3.42;2.53;;;16.40;91.90;;;;;;5072094;28;20025;-44
2024/03/05 10:38:20;;;;;;;3.03;2.20;;;16.40;91.80;;;;;;5071590;28;20077;-44
2024/03/05 10:40:46;;;;;;;3.45;2.25;;;16.40;91.80;;;;;;5070788;28;20033;-42
2024/03/05 10:43:15;;;;;;;4.72;2.80;;;16.50;91.80;;;;;;5072002;28;20028;-44
2024/03/05 10:45:44;;;;;;;3.85;2.67;;;16.50;91.80;;;;;;5072795;28;20499;-43
2024/03/05 10:48:12;;;;;;;3.85;2.65;;;16.50;91.70;;;;;;5072087;28;20074;-45
2024/03/05 10:50:39;;;;;;;3.45;2.75;;;16.50;91.70;;;;;;5073253;28;20082;-45
2024/03/05 10:53:09;;;;;;;3.17;2.50;;;16.50;91.60;;;;;;5071549;28;20028;-44
2024/03/05 10:55:36;;;;;;;3.58;2.50;;;16.50;91.60;;;;;;5071407;28;20020;-45
2024/03/05 10:58:18;;;;;;;3.42;2.50;;;16.50;91.60;;;;;;5071166;28;20024;-44
2024/03/05 11:00:45;;;;;;;3.83;2.88;;;16.50;91.60;;;;;;5071236;28;20048;-45
2024/03/05 11:03:14;;;;;;;3.03;1.98;;;16.60;91.50;;;;;;5071491;28;20123;-45
2024/03/05 11:05:49;;;;;;;3.22;2.28;;;16.50;91.50;;;;;;5071420;28;20017;-45
2024/03/05 11:08:18;;;;;;;2.65;2.33;;;16.60;91.50;;;;;;5071124;28;20020;-44
2024/03/05 11:10:51;;;;;;;3.53;2.35;;;16.60;91.50;;;;;;5070543;28;20029;-43
2024/03/05 11:13:17;;;;;;;2.45;2.00;;;16.60;91.40;;;;;;5071454;28;20024;-44
2024/03/05 11:15:44;;;;;;;2.58;2.08;;;16.60;91.40;;;;;;5072001;28;20059;-40
2024/03/05 11:18:31;;;;;;;2.25;1.80;;;16.60;91.40;;;;;;5071890;28;20036;-43
2024/03/05 11:21:00;;;;;;;2.25;1.80;;;16.70;91.40;;;;;;5070929;28;20207;-45
2024/03/05 11:23:29;;;;;;;2.33;1.90;;;16.70;91.40;;;;;;5071565;28;20100;-45
2024/03/05 11:25:58;;;;;;;2.05;1.73;;;16.70;91.30;;;;;;5071417;28;20028;-45
2024/03/05 11:28:23;;;;;;;2.40;1.80;;;16.70;91.30;;;;;;5070795;28;20029;-45
2024/03/05 11:31:10;;;;;;;2.30;1.83;;;16.70;91.30;;;;;;5070889;28;20132;-42
2024/03/05 11:33:38;;;;;;;2.20;1.70;;;16.70;91.30;;;;;;5071194;28;20028;-45
2024/03/05 11:36:22;;;;;;;2.00;1.80;;;16.70;91.20;;;;;;5070776;28;20024;-45
2024/03/05 11:38:55;;;;;;;2.63;1.90;;;16.70;91.20;;;;;;5069100;28;20103;-44
2024/03/05 11:41:26;;;;;;;2.28;1.77;;;16.70;91.20;;;;;;5070732;28;20152;-43
2024/03/05 11:43:53;;;;;;;2.20;1.73;;;16.70;91.20;;;;;;5071370;28;20032;-45
2024/03/05 11:46:41;;;;;;;2.50;1.83;;;16.70;91.20;;;;;;5070684;28;20521;-42
2024/03/05 11:49:07;;;;;;;2.13;1.67;;;16.70;91.10;;;;;;5070889;28;20081;-44
2024/03/05 11:51:33;;;;;;;2.05;1.70;;;16.70;91.10;;;;;;5070953;28;20024;-43
2024/03/05 11:54:02;;;;;;;1.90;1.27;;;16.80;91.20;;;;;;5070879;28;20040;-44
2024/03/05 11:56:27;;;;;;;1.70;1.48;;;16.80;91.10;;;;;;5070759;28;20037;-45
2024/03/05 11:58:57;;;;;;;1.90;1.50;;;16.80;91.10;;;;;;5070577;28;20390;-43
2024/03/05 12:01:23;;;;;;;1.88;1.38;;;16.80;91.10;;;;;;5070515;28;20089;-45
2024/03/05 12:04:06;;;;;;;1.40;1.20;;;16.80;91.10;;;;;;5071007;28;20016;-45
2024/03/05 12:06:43;;;;;;;1.83;1.52;;;16.80;91.10;;;;;;5071078;28;20020;-45
2024/03/05 12:09:10;;;;;;;1.50;1.40;;;16.80;91.10;;;;;;5070359;28;20013;-45
2024/03/05 12:11:36;;;;;;;1.77;1.40;;;16.90;91.10;;;;;;5071285;28;20490;-45
2024/03/05 12:14:08;;;;;;;1.80;1.40;;;16.80;91.00;;;;;;5072184;28;20544;-45
2024/03/05 12:16:35;;;;;;;1.30;1.20;;;16.90;91.00;;;;;;5070578;28;20044;-43
2024/03/05 12:19:01;;;;;;;1.48;1.25;;;16.90;91.00;;;;;;5070408;28;20131;-45
2024/03/05 12:21:27;;;;;;;2.30;1.48;;;16.90;91.00;;;;;;5070698;28;20107;-44
2024/03/05 12:23:53;;;;;;;1.40;1.20;;;16.90;91.00;;;;;;5070675;28;20082;-44
2024/03/05 12:26:20;;;;;;;1.30;1.20;;;16.90;90.90;;;;;;5070936;28;20036;-39
2024/03/05 12:28:45;;;;;;;1.95;1.50;;;17.00;90.90;;;;;;5070242;28;20033;-42
2024/03/05 12:31:11;;;;;;;2.03;1.35;;;17.00;90.90;;;;;;5070283;28;20024;-45
2024/03/05 12:33:37;;;;;;;1.95;1.10;;;17.00;90.90;;;;;;5070874;28;20481;-42
2024/03/05 12:36:05;;;;;;;1.63;1.27;;;17.00;90.80;;;;;;5070341;28;20028;-44
2024/03/05 12:38:33;;;;;;;1.25;1.10;;;17.00;90.80;;;;;;5070785;28;20108;-45
2024/03/05 12:41:00;;;;;;;1.60;1.10;;;17.10;90.80;;;;;;5069346;28;20448;-44
2024/03/05 12:43:28;;;;;;;1.23;1.10;;;17.10;90.80;;;;;;5070975;28;20063;-45
2024/03/05 12:46:03;;;;;;;1.77;1.58;;;17.10;90.70;;;;;;5071294;28;20100;-43
2024/03/05 12:48:31;;;;;;;1.70;1.30;;;17.10;90.70;;;;;;5070573;28;20020;-44
2024/03/05 12:50:59;;;;;;;1.42;0.95;;;17.10;90.70;;;;;;5071974;28;20372;-45
2024/03/05 12:53:26;;;;;;;1.30;1.10;;;17.10;91.00;;;;;;5074485;28;20036;-44